Doylestown, PA (18901)

5:25 AM EDT on May 28, 2015 (GMT -0400)
Doylestown | | Change Station
CLOSE
Current Station
Airport
Location: Doylestown,
Elevation: 394 ft
Nearby Weather Stations

Elev 394 ft 40.33 °N, 75.12 °W | Updated 31 minutes ago

Overcast
Overcast
68 °F
Feels Like 68 °F
N
5
Wind Variable Wind from South

Today
High -- | Low -- °F
--% Chance of Precip.
Yesterday
High -- | Low -- °F
Precip. -- in
5:34 AM 8:21 PM
Waxing Gibbous, 74% visible
Pressure 30.12 in
Visibility 10.0 miles
Clouds Overcast 700 ft
Dew Point 67 °F
Humidity 96%
Rainfall 0.00 in
Snow Depth Not available.
UV 0 out of 12
Pollen 4.90 out of 12
Air Quality Not available.
Flu Activity Sporadic
METAR KDYL 280854Z AUTO 18004KT 10SM OVC007 20/19 A3013 RMK AO2 SLP197 T02000194 55001

More Conditions Fewer Conditions

Pressure 30.12 in
Visibility 10.0 miles
Clouds Overcast 700 ft
Dew Point 67 °F
Humidity 96%
Rainfall 0.00 in
Snow Depth Not available.
UV 0 out of 12
Pollen 4.90 out of 12
Air Quality Not available.
Flu Activity Sporadic
METAR KDYL 280854Z AUTO 18004KT 10SM OVC007 20/19 A3013 RMK AO2 SLP197 T02000194 55001

More Conditions Fewer Conditions

Nowcast | as of 5:02 am EDT on May 28, 2015

Patchy fog will persist across southeastern Pennsylvania, northwestern and central New Jersey, and the far northern Delmarva Peninsula through sunrise. Visibilities of less than a mile at times will be possible. Motorists are urged to exercise caution for rapidly changing visbilities. Use low beam headlights and allow extra time to reach your destination.

×

10-Day Weather Forecast

Almanac

Astronomy

May. 28, 2015 Rise Set
Actual Time
Civil Twilight
Nautical Twilight
Astronomical Twilight
Moon
Length of Visible Light
Length of Day
Tomorrow will be .
, % of the Moon is Illuminated

Today's Extremes

State Highs State Lows

Community

WunderPhotos

Upload Photos

1,824,935 photos uploaded!

WunderBlogs® & News

Nearby

Air Quality

  Air Quality AQ Index Pollutant
Not available.

Snow Depth

Station Depth Elevation

Earthquake Activity

City Distance Mag. Time & Date
Minimum magnitude displayed is 2.5.

Coastal Water Temperatures

Place Temperature

Stations

Nearby Weather Stations

Station Location Temp. Windchill Dew Point Humidity Wind Precip. Elev Updated Type